createdAt,value
2019-02-20T00:01:46.385Z,10.18
2019-02-20T00:06:54.010Z,10.24
2019-02-20T00:12:01.660Z,11.34
2019-02-20T00:17:09.318Z,10.37
2019-02-20T00:22:16.983Z,10.95
2019-02-20T00:27:24.655Z,10.81
2019-02-20T00:37:39.418Z,11.19
2019-02-20T00:42:47.044Z,9.97
2019-02-20T00:47:54.698Z,9.91
2019-02-20T00:53:02.310Z,9.48
2019-02-20T00:58:09.999Z,9.82
2019-02-20T01:03:17.608Z,9.78
2019-02-20T01:08:25.348Z,10.41
2019-02-20T01:13:33.038Z,10.00
2019-02-20T01:18:40.797Z,9.93
2019-02-20T01:23:48.426Z,10.23
2019-02-20T01:28:56.140Z,10.23
2019-02-20T01:34:03.720Z,10.69
2019-02-20T01:39:11.444Z,11.07
2019-02-20T01:44:19.070Z,10.55
2019-02-20T01:49:26.805Z,12.46
2019-02-20T01:54:34.453Z,11.98
2019-02-20T01:59:42.129Z,12.03
2019-02-20T02:04:49.926Z,13.71
2019-02-20T02:09:57.560Z,14.27
2019-02-20T02:15:05.190Z,13.46
2019-02-20T02:20:12.873Z,12.08
2019-02-20T02:25:20.481Z,12.46
2019-02-20T02:30:28.178Z,12.52
2019-02-20T02:35:35.856Z,12.82
2019-02-20T02:40:44.018Z,12.19
2019-02-20T02:45:51.648Z,11.99
2019-02-20T02:50:59.882Z,12.97
2019-02-20T02:56:07.508Z,11.78
2019-02-20T03:01:16.213Z,12.13
2019-02-20T03:06:23.858Z,11.84
2019-02-20T03:11:31.566Z,12.35
2019-02-20T03:16:39.204Z,11.44
2019-02-20T03:21:46.892Z,13.30
2019-02-20T03:26:54.555Z,11.80
2019-02-20T03:32:03.909Z,11.65
2019-02-20T03:37:11.540Z,11.81
2019-02-20T03:42:20.810Z,11.82
2019-02-20T03:47:28.462Z,12.08
2019-02-20T03:52:37.041Z,13.95
2019-02-20T03:57:44.688Z,12.67
2019-02-20T04:02:52.460Z,12.80
2019-02-20T04:08:00.128Z,13.16
2019-02-20T04:13:09.448Z,13.78
2019-02-20T04:18:17.125Z,13.68
2019-02-20T04:23:24.773Z,13.62
2019-02-20T04:28:32.439Z,14.74
2019-02-20T04:33:41.145Z,14.66
2019-02-20T04:38:48.773Z,14.62
2019-02-20T04:43:56.498Z,14.46
2019-02-20T04:49:04.108Z,14.13
2019-02-20T04:54:13.775Z,15.16
2019-02-20T04:59:18.972Z,17.27
2019-02-20T05:04:26.629Z,14.92
2019-02-20T05:09:34.254Z,14.64
2019-02-20T05:14:41.947Z,16.00
2019-02-20T05:19:49.555Z,16.06
2019-02-20T05:24:57.288Z,17.60
2019-02-20T05:30:04.941Z,19.49
2019-02-20T05:35:12.586Z,22.76
2019-02-20T05:40:20.217Z,19.83
2019-02-20T05:45:28.392Z,20.63
2019-02-20T05:50:36.014Z,24.21
2019-02-20T05:55:43.920Z,21.78
2019-02-20T06:00:51.554Z,21.42
2019-02-20T06:05:59.216Z,22.55
2019-02-20T06:11:14.381Z,23.31
2019-02-20T06:16:14.074Z,23.45
2019-02-20T06:21:21.691Z,23.98
2019-02-20T06:26:29.338Z,27.60
2019-02-20T06:31:37.009Z,24.78
2019-02-20T06:36:44.715Z,29.01
2019-02-20T06:41:52.408Z,25.46
2019-02-20T06:47:00.113Z,24.45
2019-02-20T06:52:11.327Z,25.79
2019-02-20T06:57:09.156Z,25.80
2019-02-20T07:02:16.815Z,29.81
2019-02-20T07:07:24.566Z,30.13
2019-02-20T07:12:32.191Z,25.45
2019-02-20T07:17:40.997Z,30.61
2019-02-20T07:22:48.661Z,30.40
2019-02-20T07:27:56.370Z,25.86
2019-02-20T07:33:03.992Z,26.13
2019-02-20T07:38:11.705Z,26.04
2019-02-20T07:43:19.365Z,25.55
2019-02-20T07:48:27.041Z,26.23
2019-02-20T07:53:34.648Z,25.65
2019-02-20T07:58:42.333Z,25.17
2019-02-20T08:03:52.055Z,25.45
2019-02-20T08:08:59.741Z,25.87
2019-02-20T08:14:07.370Z,25.43
2019-02-20T08:19:15.083Z,25.86
2019-02-20T08:24:22.713Z,25.96
2019-02-20T08:29:30.392Z,25.92
2019-02-20T08:34:38.006Z,31.09
2019-02-20T08:39:45.783Z,27.16
2019-02-20T08:44:56.441Z,26.35
2019-02-20T08:49:54.495Z,26.60
2019-02-20T08:55:01.318Z,32.48
2019-02-20T09:00:08.997Z,26.97
2019-02-20T09:05:16.608Z,31.77
2019-02-20T09:10:24.968Z,27.29
2019-02-20T09:15:32.625Z,26.91
2019-02-20T09:20:40.329Z,27.44
2019-02-20T09:25:48.014Z,26.82
2019-02-20T09:30:55.729Z,27.34
2019-02-20T09:36:09.741Z,26.31
2019-02-20T09:41:07.448Z,26.83
2019-02-20T09:46:15.076Z,31.55
2019-02-20T09:51:22.849Z,25.55
2019-02-20T09:56:30.491Z,25.71
2019-02-20T10:01:38.195Z,28.79
2019-02-20T10:06:45.801Z,24.49
2019-02-20T10:11:53.468Z,23.19
2019-02-20T10:17:01.088Z,23.94
2019-02-20T10:22:08.820Z,21.74
2019-02-20T10:27:16.484Z,22.27
2019-02-20T10:32:41.083Z,24.65
2019-02-20T10:37:27.761Z,23.05
2019-02-20T10:42:35.411Z,21.95
2019-02-20T10:47:43.037Z,17.77
2019-02-20T10:52:50.762Z,19.95
2019-02-20T10:57:58.364Z,20.15
2019-02-20T11:03:06.099Z,17.96
2019-02-20T11:08:13.731Z,20.68
2019-02-20T11:13:22.222Z,17.83
2019-02-20T11:18:29.852Z,18.65
2019-02-20T11:23:37.573Z,20.23
2019-02-20T11:28:45.228Z,20.18
2019-02-20T11:33:52.984Z,17.36
2019-02-20T11:39:03.653Z,17.46
2019-02-20T11:44:01.411Z,18.02
2019-02-20T11:49:09.053Z,17.27
2019-02-20T11:54:16.796Z,18.29
2019-02-20T11:59:24.456Z,19.20
2019-02-20T12:04:32.183Z,15.87
2019-02-20T12:09:39.862Z,17.01
2019-02-20T12:14:47.581Z,16.88
2019-02-20T12:19:58.529Z,17.54
2019-02-20T12:24:56.153Z,16.65
2019-02-20T12:30:03.797Z,16.57
2019-02-20T12:35:11.507Z,15.53
2019-02-20T12:40:19.158Z,14.25
2019-02-20T12:45:26.853Z,13.34
2019-02-20T12:50:37.395Z,14.09
2019-02-20T12:55:35.054Z,14.05
2019-02-20T13:00:45.760Z,14.51
2019-02-20T13:05:44.740Z,14.42
2019-02-20T13:10:52.353Z,14.69
2019-02-20T13:16:00.059Z,15.33
2019-02-20T13:21:07.693Z,13.97
2019-02-20T13:26:15.375Z,14.44
2019-02-20T13:31:22.999Z,12.36
2019-02-20T13:36:30.707Z,12.76
2019-02-20T13:41:38.370Z,12.17
2019-02-20T13:46:46.143Z,10.18
2019-02-20T13:51:53.798Z,12.28
2019-02-20T13:57:02.203Z,14.39
2019-02-20T14:02:08.681Z,11.65
2019-02-20T14:07:16.376Z,12.99
2019-02-20T14:12:38.680Z,12.87
2019-02-20T14:17:26.976Z,13.12
2019-02-20T14:22:34.919Z,11.34
2019-02-20T14:27:42.564Z,9.65
2019-02-20T14:32:50.983Z,9.35
2019-02-20T14:37:58.657Z,10.66
2019-02-20T14:43:06.325Z,10.16
2019-02-20T14:48:14.279Z,9.64
2019-02-20T14:53:21.917Z,9.35
2019-02-20T14:58:29.981Z,9.55
2019-02-20T15:03:37.622Z,9.19
2019-02-20T15:08:46.128Z,8.82
2019-02-20T15:13:55.387Z,8.12
2019-02-20T15:19:01.106Z,8.41
2019-02-20T15:24:08.743Z,7.90
2019-02-20T15:29:16.488Z,8.28
2019-02-20T15:34:24.198Z,8.39
2019-02-20T15:39:31.965Z,9.00
2019-02-20T15:44:39.604Z,9.75
2019-02-20T15:49:47.373Z,10.91
2019-02-20T15:54:55.077Z,11.90
2019-02-20T16:00:02.773Z,13.05
2019-02-20T16:05:10.407Z,11.78
2019-02-20T16:10:18.153Z,11.50
2019-02-20T16:15:25.773Z,11.91
2019-02-20T16:20:33.665Z,12.94
2019-02-20T16:25:40.269Z,12.27
2019-02-20T16:30:47.984Z,11.53
2019-02-20T16:35:55.635Z,11.07
2019-02-20T16:41:04.679Z,10.55
2019-02-20T16:46:10.511Z,9.81
2019-02-20T16:51:18.181Z,9.91
2019-02-20T16:56:31.941Z,10.02
2019-02-20T17:01:29.818Z,9.90
2019-02-20T17:06:36.833Z,10.01
2019-02-20T17:11:44.496Z,9.42
2019-02-20T17:16:52.139Z,10.00
2019-02-20T17:21:59.797Z,13.59
2019-02-20T17:27:07.406Z,11.51
2019-02-20T17:32:15.177Z,10.97
2019-02-20T17:37:22.776Z,10.17
2019-02-20T17:42:30.542Z,11.71
2019-02-20T17:47:38.158Z,12.46
2019-02-20T17:52:45.835Z,12.03
2019-02-20T17:57:53.472Z,11.95
2019-02-20T18:03:01.133Z,11.45
2019-02-20T18:08:08.764Z,11.91
2019-02-20T18:13:16.460Z,11.78
2019-02-20T18:18:24.104Z,12.17
2019-02-20T18:23:32.677Z,11.30
2019-02-20T18:28:40.314Z,10.62
2019-02-20T18:33:48.008Z,11.73
2019-02-20T18:38:55.633Z,10.13
2019-02-20T18:44:03.277Z,10.74
2019-02-20T18:49:10.890Z,11.38
2019-02-20T18:54:18.384Z,10.57
2019-02-20T18:59:26.012Z,11.81
2019-02-20T19:04:33.724Z,11.95
2019-02-20T19:09:41.377Z,12.04
2019-02-20T19:14:49.137Z,20.73
2019-02-20T19:19:56.873Z,18.44
2019-02-20T19:25:04.628Z,16.10
2019-02-20T19:30:12.317Z,15.66
2019-02-20T19:35:20.023Z,22.12
2019-02-20T19:40:27.680Z,36.56
2019-02-20T19:45:35.400Z,14.24
2019-02-20T19:50:43.105Z,15.27
2019-02-20T19:55:50.806Z,15.52
2019-02-20T20:00:58.507Z,14.38
2019-02-20T20:06:06.245Z,11.58
2019-02-20T20:11:13.916Z,12.85
2019-02-20T20:16:21.656Z,12.94
2019-02-20T20:21:29.384Z,11.31
2019-02-20T20:26:37.858Z,11.91
2019-02-20T20:31:45.555Z,11.65
2019-02-20T20:36:53.267Z,11.22
2019-02-20T20:42:00.862Z,11.79
2019-02-20T20:47:08.621Z,12.26
2019-02-20T20:52:16.260Z,11.83
2019-02-20T20:57:23.933Z,13.17
2019-02-20T21:02:31.556Z,13.17
2019-02-20T21:07:39.303Z,13.06
2019-02-20T21:12:47.602Z,14.69
2019-02-20T21:17:58.798Z,13.50
2019-02-20T21:22:56.429Z,13.42
2019-02-20T21:28:04.677Z,15.16
2019-02-20T21:33:12.313Z,15.46
2019-02-20T21:38:20.095Z,14.81
2019-02-20T21:43:27.712Z,16.40
2019-02-20T21:48:35.533Z,16.76
2019-02-20T21:53:43.149Z,15.71
2019-02-20T21:58:50.921Z,15.11
2019-02-20T22:03:58.588Z,14.93
2019-02-20T22:09:06.324Z,15.09
2019-02-20T22:14:14.009Z,15.80
2019-02-20T22:19:23.725Z,15.58
2019-02-20T22:24:31.445Z,19.28
2019-02-20T22:29:49.521Z,19.64
2019-02-20T22:34:46.378Z,25.52
2019-02-20T22:39:54.024Z,26.02
2019-02-20T22:45:01.940Z,22.66
2019-02-20T22:50:09.587Z,22.94
2019-02-20T22:55:17.521Z,19.78
2019-02-20T23:00:34.386Z,23.26
2019-02-20T23:05:32.443Z,22.12
2019-02-20T23:10:40.144Z,21.95
2019-02-20T23:15:47.857Z,21.72
2019-02-20T23:20:55.500Z,21.72
2019-02-20T23:26:03.206Z,22.90
2019-02-20T23:31:10.869Z,22.98
2019-02-20T23:36:18.698Z,23.89
2019-02-20T23:41:26.353Z,24.04
2019-02-20T23:46:41.037Z,24.14
2019-02-20T23:51:38.652Z,24.38
2019-02-20T23:56:46.306Z,25.65
